Time;durP1;ratioP1;P1;durP2;ratioP2;P2;SDS_P1;SDS_P2;PMS_P1;PMS_P2;Temp;Humidity;BMP_temperature;BMP_pressure;BME280_temperature;BME280_humidity;BME280_pressure;Samples;Min_cycle;Max_cycle;Signal;HPM_P1;HPM_P2
2023/08/11 00:00:37;;;;;;;0.60;0.20;;;;;;;19.67;84.13;101149.00;5079633;28;20039;-64
2023/08/11 00:03:05;;;;;;;0.57;0.20;;;;;;;19.74;83.02;101147.25;5079951;28;20483;-65
2023/08/11 00:05:35;;;;;;;1.13;0.30;;;;;;;19.80;82.46;101141.22;5080806;28;20046;-64
2023/08/11 00:08:00;;;;;;;3.33;0.50;;;;;;;19.85;82.02;101135.34;5073161;28;20028;-65
2023/08/11 00:10:25;;;;;;;0.50;0.20;;;;;;;19.87;81.54;101138.59;5082737;28;20478;-64
2023/08/11 00:12:51;;;;;;;0.65;0.20;;;;;;;19.92;81.20;101133.56;5079500;28;20089;-64
2023/08/11 00:15:18;;;;;;;0.90;0.20;;;;;;;19.87;81.86;101135.97;5080248;28;20146;-65
2023/08/11 00:17:43;;;;;;;0.90;0.55;;;;;;;19.81;82.65;101142.03;5093601;28;20043;-65
2023/08/11 00:20:09;;;;;;;2.35;0.20;;;;;;;19.67;83.58;101142.91;5079926;28;20056;-65
2023/08/11 00:22:37;;;;;;;3.40;0.30;;;;;;;19.45;86.24;101140.19;5076949;28;20032;-65
2023/08/11 00:25:02;;;;;;;1.20;0.20;;;;;;;19.19;88.03;101142.53;5077405;28;20042;-65
2023/08/11 00:27:28;;;;;;;2.40;0.40;;;;;;;18.99;89.06;101138.81;5072271;28;20028;-65
2023/08/11 00:29:54;;;;;;;2.97;0.30;;;;;;;18.77;90.19;101136.09;5083575;28;20044;-65
2023/08/11 00:32:20;;;;;;;2.45;0.40;;;;;;;18.69;90.84;101135.34;5092082;28;20111;-65
2023/08/11 00:34:47;;;;;;;0.85;0.30;;;;;;;18.71;91.05;101128.06;5079228;28;20136;-64
2023/08/11 00:37:13;;;;;;;2.42;0.25;;;;;;;18.79;89.66;101134.09;5094814;28;20024;-65
2023/08/11 00:39:38;;;;;;;0.80;0.30;;;;;;;18.94;88.57;101131.44;5083394;28;20045;-65
2023/08/11 00:42:04;;;;;;;0.60;0.20;;;;;;;18.89;89.71;101132.00;5082271;28;20032;-65
2023/08/11 00:44:29;;;;;;;1.25;0.25;;;;;;;18.70;91.27;101134.34;5090352;28;20024;-65
2023/08/11 00:46:55;;;;;;;0.52;0.20;;;;;;;18.50;92.53;101134.84;5087268;28;20034;-64
2023/08/11 00:49:21;;;;;;;2.03;0.30;;;;;;;18.40;93.08;101130.84;5086606;28;20044;-65
2023/08/11 00:51:46;;;;;;;1.67;0.30;;;;;;;18.32;94.21;101134.38;5080043;28;20067;-65
2023/08/11 00:54:14;;;;;;;0.90;0.38;;;;;;;18.26;94.88;101129.00;5080969;28;20111;-64
2023/08/11 00:56:44;;;;;;;1.15;0.30;;;;;;;18.22;94.75;101131.97;5086650;28;20085;-65
2023/08/11 00:59:14;;;;;;;0.68;0.20;;;;;;;18.17;94.99;101136.97;5089667;28;20031;-65
2023/08/11 01:01:40;;;;;;;1.10;0.30;;;;;;;18.05;96.20;101133.09;5084523;28;20032;-65
2023/08/11 01:04:07;;;;;;;0.45;0.20;;;;;;;18.14;94.66;101134.69;5087204;28;20124;-64
2023/08/11 01:07:09;;;;;;;0.77;0.25;;;;;;;18.43;93.57;101133.13;5076824;28;20151;-65
2023/08/11 01:09:58;;;;;;;1.35;0.20;;;;;;;18.52;91.49;101132.03;5084801;28;20039;-65
2023/08/11 01:12:48;;;;;;;1.00;0.30;;;;;;;18.62;89.81;101135.25;5087498;28;20031;-64
2023/08/11 01:15:26;;;;;;;1.83;0.30;;;;;;;18.75;89.43;101137.28;5079424;28;20672;-65
2023/08/11 01:17:53;;;;;;;0.95;0.28;;;;;;;18.83;88.54;101142.47;5084050;28;20028;-65
2023/08/11 01:20:20;;;;;;;0.85;0.22;;;;;;;18.84;88.26;101138.81;5083486;28;20023;-64
2023/08/11 01:22:53;;;;;;;0.88;0.30;;;;;;;19.00;86.58;101143.91;5089511;28;20058;-65
2023/08/11 01:25:20;;;;;;;0.60;0.22;;;;;;;19.01;87.57;101137.63;5082248;28;20048;-65
2023/08/11 01:27:57;;;;;;;5.82;0.57;;;;;;;18.93;87.02;101147.44;5085745;28;20040;-65
2023/08/11 01:30:24;;;;;;;1.35;0.22;;;;;;;18.87;87.54;101146.38;5085019;28;20184;-65
2023/08/11 01:32:53;;;;;;;2.28;0.30;;;;;;;18.75;88.09;101147.81;5088628;28;20420;-65
2023/08/11 01:35:19;;;;;;;3.10;0.28;;;;;;;18.75;88.03;101148.66;5083176;28;20547;-64
2023/08/11 01:37:45;;;;;;;1.50;0.30;;;;;;;18.67;88.26;101143.44;5086394;28;20036;-65
2023/08/11 01:40:11;;;;;;;1.60;0.30;;;;;;;18.66;88.95;101147.09;5082077;28;20024;-65
2023/08/11 01:42:47;;;;;;;0.93;0.30;;;;;;;18.64;89.43;101143.81;5084912;28;20036;-65
2023/08/11 01:45:15;;;;;;;1.33;0.30;;;;;;;18.66;88.33;101143.63;5080099;28;20031;-65
2023/08/11 01:47:44;;;;;;;2.22;0.40;;;;;;;18.73;87.53;101145.38;5086185;28;20493;-65
2023/08/11 01:50:11;;;;;;;2.03;0.30;;;;;;;18.69;87.54;101141.44;5086383;28;20032;-65
2023/08/11 01:52:42;;;;;;;0.50;0.20;;;;;;;18.67;88.21;101140.81;5084340;28;20433;-64
2023/08/11 01:55:11;;;;;;;0.75;0.30;;;;;;;18.58;88.99;101139.22;5084768;28;20055;-65
2023/08/11 01:57:40;;;;;;;1.80;0.30;;;;;;;18.57;88.33;101138.41;5087029;28;20036;-65
2023/08/11 02:00:10;;;;;;;2.55;0.30;;;;;;;18.56;88.77;101142.03;5087577;28;20043;-65
2023/08/11 02:02:37;;;;;;;1.13;0.30;;;;;;;18.60;87.85;101141.69;5083788;28;20105;-64
2023/08/11 02:05:06;;;;;;;1.00;0.38;;;;;;;18.70;87.54;101147.56;5078935;28;20032;-65
2023/08/11 02:07:31;;;;;;;0.70;0.30;;;;;;;18.69;87.17;101138.00;5085806;28;20522;-64
2023/08/11 02:09:57;;;;;;;1.05;0.30;;;;;;;18.80;85.74;101143.66;5087265;28;20115;-64
2023/08/11 02:12:22;;;;;;;1.23;0.30;;;;;;;18.86;84.69;101132.38;5085200;28;20054;-63
2023/08/11 02:14:48;;;;;;;0.63;0.30;;;;;;;18.92;84.27;101137.88;5086106;28;20046;-64
2023/08/11 02:17:13;;;;;;;2.55;0.35;;;;;;;19.00;83.11;101141.25;5088447;28;20028;-64
2023/08/11 02:19:39;;;;;;;0.63;0.28;;;;;;;19.06;82.46;101131.78;5089144;28;20111;-64
2023/08/11 02:22:04;;;;;;;2.35;0.30;;;;;;;19.10;81.60;101127.78;5088938;28;20928;-64
2023/08/11 02:24:30;;;;;;;2.05;0.30;;;;;;;19.11;81.11;101140.81;5089515;28;20066;-65
2023/08/11 02:26:56;;;;;;;0.90;0.40;;;;;;;19.09;81.38;101141.97;5089273;28;20028;-65
2023/08/11 02:29:22;;;;;;;1.05;0.30;;;;;;;19.14;80.27;101144.91;5089084;28;20032;-65
2023/08/11 02:31:48;;;;;;;0.80;0.28;;;;;;;19.15;80.35;101141.25;5086300;28;20517;-64
2023/08/11 02:34:14;;;;;;;0.57;0.20;;;;;;;19.07;81.10;101146.63;5092118;28;20499;-65
2023/08/11 02:36:39;;;;;;;1.73;0.40;;;;;;;19.07;81.49;101150.09;5090990;28;20043;-64
2023/08/11 02:39:05;;;;;;;0.60;0.30;;;;;;;19.05;80.69;101149.44;5087437;28;20040;-64
2023/08/11 02:41:31;;;;;;;0.90;0.35;;;;;;;18.97;82.20;101143.44;5089326;28;20040;-64
2023/08/11 02:43:57;;;;;;;1.83;0.30;;;;;;;18.78;83.26;101150.94;5088076;28;20101;-64
2023/08/11 02:46:23;;;;;;;1.08;0.20;;;;;;;18.70;83.92;101144.91;5091128;28;20387;-64
2023/08/11 02:48:49;;;;;;;0.65;0.30;;;;;;;18.81;82.38;101133.91;5095225;28;20032;-65
2023/08/11 02:51:14;;;;;;;1.25;0.30;;;;;;;18.90;81.81;101141.53;5088514;28;20110;-65
2023/08/11 02:53:40;;;;;;;2.10;0.38;;;;;;;18.95;81.24;101140.97;5083989;28;20393;-64
2023/08/11 02:56:07;;;;;;;0.77;0.35;;;;;;;19.02;80.56;101144.53;5085185;28;20504;-65
2023/08/11 02:58:33;;;;;;;2.78;0.28;;;;;;;19.04;80.38;101149.63;5087016;28;20028;-65
2023/08/11 03:01:00;;;;;;;0.93;0.40;;;;;;;19.00;80.98;101151.00;5092544;28;20050;-65
2023/08/11 03:03:25;;;;;;;1.25;0.30;;;;;;;18.91;81.24;101147.63;5093633;28;20036;-64
2023/08/11 03:05:51;;;;;;;1.88;0.30;;;;;;;18.90;80.89;101149.44;5084383;28;20042;-65
2023/08/11 03:08:16;;;;;;;0.70;0.28;;;;;;;18.92;80.51;101151.91;5085619;28;20086;-65
2023/08/11 03:10:42;;;;;;;1.27;0.40;;;;;;;18.87;81.28;101155.13;5087867;28;20044;-64
2023/08/11 03:13:07;;;;;;;0.70;0.30;;;;;;;18.75;83.64;101156.56;5083470;28;20028;-65
2023/08/11 03:15:33;;;;;;;2.55;0.30;;;;;;;18.54;85.36;101153.78;5086576;28;20032;-65
2023/08/11 03:17:59;;;;;;;1.70;0.35;;;;;;;18.37;86.19;101157.59;5093038;28;20699;-64
2023/08/11 03:20:25;;;;;;;1.10;0.30;;;;;;;18.44;84.21;101155.84;5087635;28;20028;-64
2023/08/11 03:22:51;;;;;;;3.83;0.30;;;;;;;18.54;83.52;101159.06;5089580;28;20115;-64
2023/08/11 03:25:16;;;;;;;2.92;0.30;;;;;;;18.58;82.49;101160.34;5092148;28;20044;-64
2023/08/11 03:27:42;;;;;;;1.98;1.05;;;;;;;18.58;82.22;101155.88;5088526;28;20095;-64
2023/08/11 03:30:10;;;;;;;2.92;0.30;;;;;;;18.55;82.49;101172.06;5084819;28;20463;-64
2023/08/11 03:32:38;;;;;;;2.30;0.30;;;;;;;18.44;83.44;101172.50;5085479;28;20035;-64
2023/08/11 03:35:07;;;;;;;3.03;0.40;;;;;;;18.39;83.87;101160.84;5090015;28;20137;-64
2023/08/11 03:37:34;;;;;;;1.08;0.40;;;;;;;18.31;85.09;101164.38;5089206;28;20059;-64
2023/08/11 03:40:00;;;;;;;1.42;0.30;;;;;;;18.17;86.29;101160.69;5085385;28;20396;-65
2023/08/11 03:42:25;;;;;;;1.00;0.40;;;;;;;18.07;87.64;101172.47;5090972;28;20058;-64
2023/08/11 03:44:51;;;;;;;1.00;0.40;;;;;;;18.04;87.30;101168.38;5088864;28;20046;-65
2023/08/11 03:47:19;;;;;;;0.82;0.38;;;;;;;18.08;87.33;101169.66;5084359;28;20020;-65
2023/08/11 03:49:45;;;;;;;1.40;0.30;;;;;;;18.06;86.92;101163.75;5088871;28;20402;-65
2023/08/11 03:52:12;;;;;;;3.15;0.40;;;;;;;17.96;87.81;101165.78;5087468;28;20042;-64
2023/08/11 03:54:38;;;;;;;2.45;0.30;;;;;;;17.95;87.71;101171.28;5087326;28;20146;-64
2023/08/11 03:57:03;;;;;;;1.70;0.60;;;;;;;17.87;88.51;101172.16;5088642;28;20081;-64
2023/08/11 03:59:29;;;;;;;1.88;0.30;;;;;;;17.68;89.91;101173.41;5088532;28;20044;-64
2023/08/11 04:01:54;;;;;;;1.10;0.30;;;;;;;17.61;90.65;101182.13;5082744;28;20035;-65
2023/08/11 04:04:20;;;;;;;1.45;0.50;;;;;;;17.53;91.49;101180.34;5089990;28;20029;-64
2023/08/11 04:06:45;;;;;;;1.55;0.38;;;;;;;17.55;92.08;101179.19;5091985;28;20028;-64
2023/08/11 04:09:11;;;;;;;2.25;0.57;;;;;;;17.50;93.08;101181.53;5089546;28;20024;-64
2023/08/11 04:11:36;;;;;;;2.72;0.50;;;;;;;17.42;94.36;101178.13;5086229;28;20373;-64
2023/08/11 04:14:02;;;;;;;1.05;0.40;;;;;;;17.43;93.39;101177.13;5090629;28;20093;-64
2023/08/11 04:16:28;;;;;;;1.70;0.30;;;;;;;17.76;89.89;101172.53;5081948;28;20028;-64
2023/08/11 04:18:53;;;;;;;0.80;0.30;;;;;;;17.89;88.93;101175.44;5088013;28;20028;-64
2023/08/11 04:21:19;;;;;;;2.67;0.50;;;;;;;17.89;88.79;101164.88;5088034;28;20028;-64
2023/08/11 04:23:44;;;;;;;1.90;0.40;;;;;;;17.88;88.81;101165.88;5089155;28;20399;-64
2023/08/11 04:26:10;;;;;;;2.92;0.50;;;;;;;17.92;88.61;101171.63;5088275;28;20047;-64
2023/08/11 04:28:38;;;;;;;1.23;0.50;;;;;;;17.87;88.41;101174.78;5087168;28;20357;-64
2023/08/11 04:31:06;;;;;;;0.80;0.40;;;;;;;17.80;89.64;101171.19;5076084;28;20028;-64
2023/08/11 04:33:32;;;;;;;4.78;0.38;;;;;;;17.66;90.39;101172.75;5088100;28;20557;-64
2023/08/11 04:35:58;;;;;;;1.73;0.30;;;;;;;17.70;89.98;101181.13;5086228;28;20103;-64
2023/08/11 04:38:23;;;;;;;1.15;0.40;;;;;;;17.77;89.71;101177.63;5094887;28;20077;-64
2023/08/11 04:40:50;;;;;;;2.78;0.40;;;;;;;17.88;88.59;101173.78;5083452;28;20024;-64
2023/08/11 04:43:16;;;;;;;2.00;0.30;;;;;;;18.07;86.99;101172.47;5095615;28;20056;-64
2023/08/11 04:45:41;;;;;;;2.08;0.43;;;;;;;18.19;86.18;101171.91;5083611;28;20056;-64
2023/08/11 04:48:07;;;;;;;0.68;0.22;;;;;;;18.33;84.95;101172.94;5085154;28;20027;-64
2023/08/11 04:50:32;;;;;;;0.98;0.45;;;;;;;18.39;84.54;101172.22;5088165;28;20032;-64
2023/08/11 04:52:58;;;;;;;0.80;0.30;;;;;;;18.44;84.10;101174.31;5081956;28;20063;-64
2023/08/11 04:55:23;;;;;;;3.72;0.52;;;;;;;18.50;83.76;101174.41;5086190;28;20031;-64
2023/08/11 04:57:48;;;;;;;1.45;0.60;;;;;;;18.60;83.26;101174.19;5097034;28;20032;-65
2023/08/11 05:00:16;;;;;;;1.63;0.50;;;;;;;18.68;82.15;101181.22;5080203;28;21215;-65
2023/08/11 05:02:43;;;;;;;1.95;0.40;;;;;;;18.74;81.71;101177.88;5085703;28;20028;-64
2023/08/11 05:05:09;;;;;;;0.93;0.35;;;;;;;18.83;81.60;101182.06;5085100;28;20081;-65
2023/08/11 05:07:34;;;;;;;0.50;0.25;;;;;;;18.88;80.86;101185.81;5083752;28;20506;-64
2023/08/11 05:10:00;;;;;;;1.38;0.40;;;;;;;18.90;80.90;101190.91;5085080;28;20043;-65
2023/08/11 05:12:25;;;;;;;1.83;0.43;;;;;;;18.87;81.33;101194.72;5081657;28;20498;-65
2023/08/11 05:14:51;;;;;;;2.45;0.30;;;;;;;18.97;81.12;101191.78;5088615;28;20497;-65
2023/08/11 05:17:16;;;;;;;2.40;0.30;;;;;;;18.92;81.55;101195.97;5083727;28;20036;-65
2023/08/11 05:19:42;;;;;;;3.95;0.40;;;;;;;18.92;81.54;101204.72;5081435;28;20383;-64
2023/08/11 05:22:07;;;;;;;0.70;0.30;;;;;;;18.91;81.78;101200.44;5083452;28;20027;-65
2023/08/11 05:24:33;;;;;;;1.10;0.47;;;;;;;18.89;81.90;101205.94;5085250;28;20065;-65
2023/08/11 05:26:58;;;;;;;1.27;0.30;;;;;;;18.96;81.57;101200.72;5082177;28;20028;-69
2023/08/11 05:29:24;;;;;;;2.15;0.40;;;;;;;19.02;81.30;101204.47;5087013;28;20505;-69
2023/08/11 05:31:49;;;;;;;1.45;0.40;;;;;;;19.07;81.18;101208.19;5084596;28;20036;-69
2023/08/11 05:34:15;;;;;;;2.25;0.40;;;;;;;19.17;80.50;101206.09;5081229;28;20062;-70
2023/08/11 05:36:40;;;;;;;3.38;0.30;;;;;;;19.17;80.84;101211.38;5076636;28;20028;-69
2023/08/11 05:39:08;;;;;;;0.63;0.30;;;;;;;19.18;80.88;101209.56;5087170;28;20028;-69
2023/08/11 05:41:33;;;;;;;1.15;0.40;;;;;;;19.27;80.79;101216.41;5089247;28;20098;-71
2023/08/11 05:43:59;;;;;;;0.73;0.30;;;;;;;19.31;81.52;101217.69;5082291;28;20043;-71
2023/08/11 05:46:24;;;;;;;0.82;0.30;;;;;;;19.45;80.99;101210.72;5083902;28;20450;-71
2023/08/11 05:48:51;;;;;;;2.75;0.40;;;;;;;19.60;80.27;101222.13;5085897;28;20016;-71
2023/08/11 05:51:16;;;;;;;2.08;0.30;;;;;;;19.71;78.68;101219.00;5082800;28;20482;-71
2023/08/11 05:53:42;;;;;;;1.05;0.20;;;;;;;19.74;78.50;101228.38;5082962;28;20032;-71
2023/08/11 05:56:08;;;;;;;1.77;0.40;;;;;;;19.80;78.14;101225.00;5084295;28;20028;-71
2023/08/11 05:58:33;;;;;;;0.60;0.30;;;;;;;19.91;77.80;101224.50;5088143;28;20449;-70
2023/08/11 06:01:00;;;;;;;0.70;0.30;;;;;;;20.01;77.19;101229.47;5080703;28;20028;-71
2023/08/11 06:03:30;;;;;;;0.90;0.32;;;;;;;20.04;77.57;101221.19;5085222;28;20028;-71
2023/08/11 06:06:04;;;;;;;2.78;0.35;;;;;;;20.00;77.29;101226.03;5081113;28;20182;-71
2023/08/11 06:08:30;;;;;;;0.82;0.22;;;;;;;19.98;78.08;101225.38;5087447;28;20495;-72
2023/08/11 06:10:55;;;;;;;0.80;0.30;;;;;;;19.92;78.54;101220.84;5085839;28;20035;-71
2023/08/11 06:13:22;;;;;;;2.72;0.30;;;;;;;19.92;79.00;101220.03;5090205;28;20028;-71
2023/08/11 06:15:51;;;;;;;2.38;0.30;;;;;;;19.99;79.23;101221.72;5079368;28;20028;-71
2023/08/11 06:18:19;;;;;;;4.03;0.30;;;;;;;20.08;79.35;101228.56;5085465;28;20213;-72
2023/08/11 06:20:45;;;;;;;1.38;0.30;;;;;;;20.21;78.89;101228.69;5081215;28;20032;-72
2023/08/11 06:23:12;;;;;;;3.15;0.30;;;;;;;20.31;78.38;101217.78;5081775;28;20491;-72
2023/08/11 06:25:37;;;;;;;2.28;0.25;;;;;;;20.44;78.30;101225.84;5090257;28;20063;-72
2023/08/11 06:28:03;;;;;;;0.77;0.30;;;;;;;20.48;77.92;101231.59;5081583;28;20047;-71
2023/08/11 06:30:30;;;;;;;1.73;0.30;;;;;;;20.48;77.36;101227.13;5077345;28;20044;-71
2023/08/11 06:32:55;;;;;;;1.60;0.30;;;;;;;20.54;77.59;101229.00;5070656;28;20029;-72
2023/08/11 06:35:21;;;;;;;1.63;0.38;;;;;;;20.60;77.86;101238.00;5081699;28;20028;-72
2023/08/11 06:37:47;;;;;;;1.20;0.70;;;;;;;20.64;78.65;101231.31;5080301;28;20033;-72
2023/08/11 06:40:13;;;;;;;2.05;0.30;;;;;;;20.75;78.18;101236.09;5083660;28;20032;-72
2023/08/11 06:42:39;;;;;;;1.80;0.30;;;;;;;20.94;77.53;101239.06;5084378;28;20040;-72
2023/08/11 06:45:06;;;;;;;1.15;0.30;;;;;;;21.00;77.34;101233.81;5102990;28;20043;-72
2023/08/11 06:47:31;;;;;;;0.70;0.30;;;;;;;21.05;76.01;101226.09;5085753;28;20024;-73
2023/08/11 06:49:57;;;;;;;3.40;0.35;;;;;;;21.17;75.18;101227.19;5085634;28;20036;-73
2023/08/11 06:52:23;;;;;;;0.98;0.40;;;;;;;21.26;74.12;101233.19;5083857;28;20043;-72
2023/08/11 06:54:49;;;;;;;0.73;0.40;;;;;;;21.33;73.96;101236.66;5082625;28;20135;-69
2023/08/11 06:57:14;;;;;;;1.60;0.22;;;;;;;21.44;73.50;101232.66;5080993;28;20214;-69
2023/08/11 06:59:39;;;;;;;0.75;0.30;;;;;;;21.56;73.38;101239.03;5081262;28;20154;-69
2023/08/11 07:02:05;;;;;;;0.70;0.30;;;;;;;21.68;73.23;101239.28;5085190;28;20058;-69
2023/08/11 07:04:31;;;;;;;1.40;0.43;;;;;;;21.74;72.80;101241.16;5080164;28;20032;-71
2023/08/11 07:06:56;;;;;;;1.10;0.40;;;;;;;21.84;72.96;101239.72;5086982;28;20050;-70
2023/08/11 07:09:22;;;;;;;0.85;0.32;;;;;;;21.91;72.55;101230.97;5089592;28;20395;-69
2023/08/11 07:11:47;;;;;;;0.63;0.30;;;;;;;22.02;72.70;101241.03;5080950;28;20069;-70
2023/08/11 07:14:13;;;;;;;3.42;0.30;;;;;;;22.13;72.82;101245.75;5084556;28;20036;-69
2023/08/11 07:16:38;;;;;;;0.60;0.30;;;;;;;22.19;72.93;101247.59;5072927;28;20036;-69
2023/08/11 07:19:04;;;;;;;2.67;0.28;;;;;;;22.24;72.36;101246.97;5080233;28;20111;-70
2023/08/11 07:21:29;;;;;;;0.80;0.30;;;;;;;22.24;72.86;101249.63;5080134;28;20487;-69
2023/08/11 07:23:55;;;;;;;0.90;0.30;;;;;;;22.20;72.83;101254.56;5072119;28;20033;-69
2023/08/11 07:26:20;;;;;;;0.77;0.40;;;;;;;22.17;72.72;101247.81;5081127;28;20044;-70
2023/08/11 07:28:46;;;;;;;0.82;0.30;;;;;;;22.24;72.32;101250.44;5081127;28;20073;-68
2023/08/11 07:31:12;;;;;;;0.73;0.28;;;;;;;22.33;71.72;101256.38;5081795;28;20035;-69
2023/08/11 07:33:39;;;;;;;3.53;0.30;;;;;;;22.45;72.06;101250.28;5088514;28;20032;-69
2023/08/11 07:36:05;;;;;;;1.08;0.40;;;;;;;22.64;71.72;101253.97;5083173;28;20052;-69
2023/08/11 07:38:31;;;;;;;2.78;0.30;;;;;;;22.95;70.75;101253.34;5077238;28;20047;-69
2023/08/11 07:40:56;;;;;;;1.10;0.40;;;;;;;22.96;69.75;101251.50;5072951;28;20033;-69
2023/08/11 07:43:22;;;;;;;1.02;0.40;;;;;;;23.00;70.38;101252.72;5072012;28;20024;-69
2023/08/11 07:45:47;;;;;;;2.20;0.40;;;;;;;23.09;69.96;101252.31;5074102;28;20034;-68
2023/08/11 07:48:13;;;;;;;1.10;0.40;;;;;;;23.12;69.73;101249.25;5080593;28;20035;-68
2023/08/11 07:50:39;;;;;;;2.15;0.30;;;;;;;23.29;69.85;101249.59;5084857;28;20028;-69
2023/08/11 07:53:05;;;;;;;1.35;0.30;;;;;;;23.56;69.65;101252.19;5082920;28;24837;-69
2023/08/11 07:55:31;;;;;;;1.25;0.30;;;;;;;23.72;69.39;101249.84;5086826;28;20060;-69
2023/08/11 07:57:56;;;;;;;2.53;0.43;;;;;;;23.79;69.64;101250.63;5089197;28;20060;-69
2023/08/11 08:00:25;;;;;;;1.05;0.30;;;;;;;23.79;69.18;101263.13;5089596;28;20020;-68
2023/08/11 08:02:54;;;;;;;0.80;0.22;;;;;;;24.03;67.59;101253.59;5089557;28;20028;-69
2023/08/11 08:05:19;;;;;;;0.73;0.28;;;;;;;24.02;67.82;101257.28;5091107;28;20020;-68
2023/08/11 08:07:45;;;;;;;0.50;0.20;;;;;;;24.11;66.85;101253.31;5092294;28;20162;-68
2023/08/11 08:10:13;;;;;;;0.80;0.30;;;;;;;24.10;66.76;101254.38;5092307;28;20051;-68
2023/08/11 08:12:41;;;;;;;0.60;0.40;;;;;;;24.28;66.47;101257.13;5092151;28;20044;-68
2023/08/11 08:15:09;;;;;;;1.90;0.30;;;;;;;24.50;66.06;101259.44;5089802;28;20536;-69
2023/08/11 08:17:34;;;;;;;0.80;0.30;;;;;;;24.52;66.61;101262.72;5090508;28;20142;-68
2023/08/11 08:20:00;;;;;;;0.82;0.30;;;;;;;24.59;66.09;101263.44;5091085;28;20036;-68
2023/08/11 08:22:26;;;;;;;0.50;0.28;;;;;;;24.76;66.27;101261.88;5090798;28;20089;-69
2023/08/11 08:24:52;;;;;;;0.68;0.30;;;;;;;24.57;66.50;101261.03;5088913;28;20044;-68
2023/08/11 08:27:24;;;;;;;0.73;0.30;;;;;;;24.48;67.02;101259.66;5091302;28;20042;-68
2023/08/11 08:29:50;;;;;;;0.70;0.30;;;;;;;24.69;66.81;101261.09;5090796;28;20083;-68
2023/08/11 08:32:16;;;;;;;0.88;0.40;;;;;;;24.85;66.60;101262.41;5088304;28;20111;-68
2023/08/11 08:34:43;;;;;;;0.90;0.45;;;;;;;25.03;65.99;101265.16;5100010;28;20400;-68
2023/08/11 08:37:08;;;;;;;1.48;0.30;;;;;;;25.18;65.02;101267.44;5090662;28;20055;-68
2023/08/11 08:39:34;;;;;;;0.95;0.40;;;;;;;25.20;64.41;101273.38;5090272;28;20074;-68
2023/08/11 08:42:01;;;;;;;0.70;0.30;;;;;;;25.23;63.77;101271.06;5081635;28;20040;-68
2023/08/11 08:44:27;;;;;;;1.48;0.20;;;;;;;25.43;63.37;101266.34;5091485;28;20526;-69
2023/08/11 08:46:55;;;;;;;0.80;0.32;;;;;;;25.46;63.10;101268.56;5090684;28;20036;-68
2023/08/11 08:49:28;;;;;;;2.25;0.90;;;;;;;25.28;62.98;101268.56;5091520;28;20031;-69
2023/08/11 08:51:54;;;;;;;0.63;0.30;;;;;;;25.08;63.24;101270.59;5089264;28;20383;-68
2023/08/11 08:54:21;;;;;;;2.10;0.30;;;;;;;25.16;63.18;101270.31;5085659;28;20036;-68
2023/08/11 08:56:46;;;;;;;0.70;0.30;;;;;;;25.19;62.28;101267.22;5090666;28;20032;-68
2023/08/11 08:59:12;;;;;;;0.70;0.30;;;;;;;25.09;61.99;101265.06;5081603;28;20035;-68
2023/08/11 09:01:38;;;;;;;1.30;0.40;;;;;;;25.07;61.50;101267.13;5091348;28;20036;-68
2023/08/11 09:04:06;;;;;;;0.80;0.30;;;;;;;25.04;61.39;101264.13;5088327;28;20040;-68
2023/08/11 09:06:32;;;;;;;2.05;0.43;;;;;;;24.92;61.13;101263.16;5091024;28;20090;-68
2023/08/11 09:08:59;;;;;;;0.50;0.30;;;;;;;24.91;60.71;101266.88;5090528;28;20395;-68
2023/08/11 09:11:26;;;;;;;1.10;0.40;;;;;;;25.02;61.68;101260.84;5091241;28;20508;-68
2023/08/11 09:13:52;;;;;;;0.63;0.32;;;;;;;25.08;62.13;101262.59;5089410;28;20036;-68
2023/08/11 09:16:22;;;;;;;0.95;0.35;;;;;;;25.14;61.73;101261.72;5091301;28;20059;-68
2023/08/11 09:18:49;;;;;;;0.82;0.40;;;;;;;25.15;61.19;101263.34;5088798;28;20071;-68
2023/08/11 09:21:14;;;;;;;1.02;0.30;;;;;;;25.14;60.07;101257.22;5090989;28;20035;-68
2023/08/11 09:23:43;;;;;;;0.70;0.25;;;;;;;25.13;60.26;101260.91;5091258;28;20024;-68
2023/08/11 09:26:09;;;;;;;0.57;0.30;;;;;;;25.31;59.98;101262.78;5089729;28;20931;-68
2023/08/11 09:28:35;;;;;;;2.40;0.52;;;;;;;25.25;59.81;101253.00;5091161;28;20119;-68
2023/08/11 09:31:00;;;;;;;0.68;0.30;;;;;;;25.21;61.10;101257.16;5089248;28;20024;-69
2023/08/11 09:33:26;;;;;;;1.67;0.45;;;;;;;25.26;62.14;101262.63;5091003;28;20020;-68
2023/08/11 09:35:53;;;;;;;0.50;0.30;;;;;;;25.34;61.74;101262.34;5090144;28;20055;-68
2023/08/11 09:38:19;;;;;;;1.48;0.30;;;;;;;25.50;60.76;101252.13;5091107;28;20024;-69
2023/08/11 09:40:48;;;;;;;2.58;0.40;;;;;;;25.53;59.50;101246.31;5091030;28;20055;-69
2023/08/11 09:43:14;;;;;;;2.15;0.32;;;;;;;25.30;58.95;101253.16;5090954;28;20036;-72
2023/08/11 09:45:39;;;;;;;0.50;0.30;;;;;;;24.87;60.42;101245.16;5089942;28;20034;-73
2023/08/11 09:48:05;;;;;;;1.42;0.40;;;;;;;24.93;60.18;101259.47;5090310;28;20495;-73
2023/08/11 09:50:34;;;;;;;0.77;0.35;;;;;;;25.05;60.53;101247.88;5090879;28;20036;-72
2023/08/11 09:53:04;;;;;;;0.70;0.30;;;;;;;25.26;60.80;101253.81;5082935;28;20055;-73
2023/08/11 09:55:31;;;;;;;0.77;0.30;;;;;;;25.28;61.01;101252.56;5091214;28;20027;-73
2023/08/11 09:57:58;;;;;;;0.60;0.28;;;;;;;25.21;60.36;101246.47;5088638;28;20365;-73
2023/08/11 10:00:25;;;;;;;1.08;0.38;;;;;;;25.10;60.49;101249.88;5090845;28;20081;-73
2023/08/11 10:02:58;;;;;;;1.92;0.40;;;;;;;25.13;60.62;101241.44;5090203;28;20446;-72
2023/08/11 10:05:28;;;;;;;0.70;0.30;;;;;;;25.09;60.51;101245.56;5090810;28;20036;-74
2023/08/11 10:07:57;;;;;;;1.40;0.30;;;;;;;25.10;60.68;101249.88;5083350;28;20491;-73
2023/08/11 10:10:23;;;;;;;0.80;0.40;;;;;;;25.09;60.20;101253.56;5090807;28;20115;-73
2023/08/11 10:12:56;;;;;;;0.93;0.30;;;;;;;25.11;59.34;101252.31;5090051;28;20028;-69
2023/08/11 10:15:23;;;;;;;2.35;0.30;;;;;;;25.08;58.22;101246.59;5090755;28;20112;-73
2023/08/11 10:17:49;;;;;;;2.63;0.30;;;;;;;25.08;59.21;101252.75;5089947;28;20060;-72
2023/08/11 10:20:16;;;;;;;1.77;0.30;;;;;;;25.19;59.92;101253.88;5089447;28;20027;-72
2023/08/11 10:22:41;;;;;;;0.68;0.40;;;;;;;25.38;59.93;101252.84;5090115;28;20032;-73
2023/08/11 10:25:08;;;;;;;0.60;0.25;;;;;;;25.39;60.53;101253.66;5086886;28;20036;-73
2023/08/11 10:27:35;;;;;;;1.40;0.30;;;;;;;25.35;61.03;101253.28;5087246;28;20051;-72
2023/08/11 10:30:03;;;;;;;0.85;0.35;;;;;;;25.41;60.38;101252.41;5088210;28;20480;-73
2023/08/11 10:32:32;;;;;;;0.70;0.40;;;;;;;25.38;60.93;101252.03;5090350;28;20067;-73
2023/08/11 10:34:57;;;;;;;0.73;0.32;;;;;;;25.44;60.57;101257.31;5089907;28;20040;-72
2023/08/11 10:37:29;;;;;;;0.90;0.32;;;;;;;25.52;58.41;101258.81;5089546;28;20093;-73
2023/08/11 10:40:04;;;;;;;1.25;0.40;;;;;;;25.29;58.87;101262.19;5093763;28;20490;-72
2023/08/11 10:42:30;;;;;;;0.80;0.40;;;;;;;25.30;58.12;101255.00;5094301;28;20132;-73
2023/08/11 10:45:08;;;;;;;1.33;0.45;;;;;;;25.49;56.36;101253.16;5093584;28;20119;-73
2023/08/11 10:47:33;;;;;;;0.90;0.25;;;;;;;25.61;56.51;101257.47;5092998;28;20028;-73
2023/08/11 10:50:00;;;;;;;1.20;0.32;;;;;;;25.44;57.06;101254.63;5091961;28;20357;-73
2023/08/11 10:52:26;;;;;;;1.25;0.40;;;;;;;25.32;58.04;101256.41;5090775;28;20067;-72
2023/08/11 10:54:51;;;;;;;0.60;0.38;;;;;;;25.45;57.69;101255.44;5089415;28;20059;-73
2023/08/11 10:57:17;;;;;;;1.30;0.30;;;;;;;25.64;57.07;101257.06;5093975;28;20028;-72
2023/08/11 10:59:42;;;;;;;0.57;0.25;;;;;;;25.71;56.27;101251.66;5094038;28;20051;-72
2023/08/11 11:02:08;;;;;;;0.60;0.30;;;;;;;25.69;56.73;101245.72;5093371;28;20486;-73
2023/08/11 11:04:33;;;;;;;0.70;0.30;;;;;;;25.76;55.12;101241.13;5092189;28;20075;-72
2023/08/11 11:07:00;;;;;;;2.67;0.40;;;;;;;25.97;54.77;101243.28;5092715;28;20035;-73
2023/08/11 11:09:27;;;;;;;0.75;0.30;;;;;;;26.02;53.88;101242.59;5093599;28;20058;-72
2023/08/11 11:11:53;;;;;;;0.80;0.30;;;;;;;25.92;54.60;101237.81;5093279;28;20054;-73
2023/08/11 11:14:19;;;;;;;1.45;0.30;;;;;;;25.84;56.17;101240.81;5093600;28;20028;-72
2023/08/11 11:16:46;;;;;;;0.63;0.30;;;;;;;26.07;56.56;101245.38;5093136;28;20066;-72
2023/08/11 11:19:11;;;;;;;2.60;0.40;;;;;;;26.35;56.71;101242.13;5090982;28;20031;-72
2023/08/11 11:21:39;;;;;;;0.95;0.35;;;;;;;26.31;56.81;101241.78;5089882;28;20391;-72